sensor_id;sensor_type;location;lat;lon;timestamp;P1;durP1;ratioP1;P2;durP2;ratioP2
5718;SDS011;2884;47.734;9.244;2023-02-28T00:00:12;4.82;;;3.47;;
5718;SDS011;2884;47.734;9.244;2023-02-28T00:02:39;6.82;;;4.15;;
5718;SDS011;2884;47.734;9.244;2023-02-28T00:05:06;4.20;;;3.70;;
5718;SDS011;2884;47.734;9.244;2023-02-28T00:07:33;4.75;;;3.83;;
5718;SDS011;2884;47.734;9.244;2023-02-28T00:09:58;4.40;;;4.00;;
5718;SDS011;2884;47.734;9.244;2023-02-28T00:12:25;4.40;;;4.00;;
5718;SDS011;2884;47.734;9.244;2023-02-28T00:14:51;6.70;;;3.85;;
5718;SDS011;2884;47.734;9.244;2023-02-28T00:17:17;9.73;;;4.10;;
5718;SDS011;2884;47.734;9.244;2023-02-28T00:19:47;6.05;;;3.60;;
5718;SDS011;2884;47.734;9.244;2023-02-28T00:22:14;4.80;;;3.97;;
5718;SDS011;2884;47.734;9.244;2023-02-28T00:24:40;8.05;;;4.07;;
5718;SDS011;2884;47.734;9.244;2023-02-28T00:27:05;4.57;;;4.03;;
5718;SDS011;2884;47.734;9.244;2023-02-28T00:29:31;5.70;;;3.80;;
5718;SDS011;2884;47.734;9.244;2023-02-28T00:31:57;4.53;;;4.13;;
5718;SDS011;2884;47.734;9.244;2023-02-28T00:34:22;4.73;;;4.30;;
5718;SDS011;2884;47.734;9.244;2023-02-28T00:36:48;5.40;;;3.57;;
5718;SDS011;2884;47.734;9.244;2023-02-28T00:39:16;9.27;;;3.50;;
5718;SDS011;2884;47.734;9.244;2023-02-28T00:41:42;4.60;;;4.07;;
5718;SDS011;2884;47.734;9.244;2023-02-28T00:44:09;6.53;;;3.88;;
5718;SDS011;2884;47.734;9.244;2023-02-28T00:46:34;5.83;;;4.03;;
5718;SDS011;2884;47.734;9.244;2023-02-28T00:49:02;3.72;;;3.42;;
5718;SDS011;2884;47.734;9.244;2023-02-28T00:51:28;5.47;;;3.90;;
5718;SDS011;2884;47.734;9.244;2023-02-28T00:53:54;5.90;;;4.00;;
5718;SDS011;2884;47.734;9.244;2023-02-28T00:56:19;5.60;;;3.93;;
5718;SDS011;2884;47.734;9.244;2023-02-28T00:58:48;7.07;;;4.35;;
5718;SDS011;2884;47.734;9.244;2023-02-28T01:01:13;4.80;;;4.20;;
5718;SDS011;2884;47.734;9.244;2023-02-28T01:03:39;4.20;;;3.40;;
5718;SDS011;2884;47.734;9.244;2023-02-28T01:06:05;4.80;;;3.30;;
5718;SDS011;2884;47.734;9.244;2023-02-28T01:08:30;6.77;;;4.43;;
5718;SDS011;2884;47.734;9.244;2023-02-28T01:10:56;9.30;;;4.73;;
5718;SDS011;2884;47.734;9.244;2023-02-28T01:13:22;4.78;;;4.30;;
5718;SDS011;2884;47.734;9.244;2023-02-28T01:15:53;12.68;;;4.72;;
5718;SDS011;2884;47.734;9.244;2023-02-28T01:18:20;5.72;;;3.70;;
5718;SDS011;2884;47.734;9.244;2023-02-28T01:20:46;5.28;;;3.60;;
5718;SDS011;2884;47.734;9.244;2023-02-28T01:23:12;4.73;;;3.30;;
5718;SDS011;2884;47.734;9.244;2023-02-28T01:25:38;5.00;;;3.63;;
5718;SDS011;2884;47.734;9.244;2023-02-28T01:28:04;3.90;;;3.50;;
5718;SDS011;2884;47.734;9.244;2023-02-28T01:30:30;4.45;;;3.80;;
5718;SDS011;2884;47.734;9.244;2023-02-28T01:32:56;4.68;;;4.00;;
5718;SDS011;2884;47.734;9.244;2023-02-28T01:35:22;7.27;;;3.53;;
5718;SDS011;2884;47.734;9.244;2023-02-28T01:37:47;4.67;;;3.53;;
5718;SDS011;2884;47.734;9.244;2023-02-28T01:40:13;4.10;;;3.30;;
5718;SDS011;2884;47.734;9.244;2023-02-28T01:42:39;4.60;;;3.97;;
5718;SDS011;2884;47.734;9.244;2023-02-28T01:47:50;6.20;;;3.30;;
5718;SDS011;2884;47.734;9.244;2023-02-28T01:50:19;5.15;;;3.88;;
5718;SDS011;2884;47.734;9.244;2023-02-28T01:52:47;3.67;;;3.35;;
5718;SDS011;2884;47.734;9.244;2023-02-28T01:55:13;4.78;;;3.55;;
5718;SDS011;2884;47.734;9.244;2023-02-28T01:57:45;4.38;;;3.65;;
5718;SDS011;2884;47.734;9.244;2023-02-28T02:00:14;5.30;;;4.20;;
5718;SDS011;2884;47.734;9.244;2023-02-28T02:02:43;3.40;;;3.15;;
5718;SDS011;2884;47.734;9.244;2023-02-28T02:05:12;5.20;;;3.92;;
5718;SDS011;2884;47.734;9.244;2023-02-28T02:07:41;6.15;;;3.78;;
5718;SDS011;2884;47.734;9.244;2023-02-28T02:15:16;5.13;;;3.45;;
5718;SDS011;2884;47.734;9.244;2023-02-28T02:17:45;4.75;;;3.90;;
5718;SDS011;2884;47.734;9.244;2023-02-28T02:36:17;5.10;;;3.20;;
5718;SDS011;2884;47.734;9.244;2023-02-28T02:41:51;5.80;;;3.80;;
5718;SDS011;2884;47.734;9.244;2023-02-28T02:44:20;3.25;;;2.95;;
5718;SDS011;2884;47.734;9.244;2023-02-28T02:46:48;5.20;;;3.63;;
5718;SDS011;2884;47.734;9.244;2023-02-28T02:49:19;4.05;;;3.47;;
5718;SDS011;2884;47.734;9.244;2023-02-28T02:51:51;3.30;;;3.00;;
5718;SDS011;2884;47.734;9.244;2023-02-28T02:54:28;4.47;;;3.33;;
5718;SDS011;2884;47.734;9.244;2023-02-28T02:56:57;3.60;;;3.08;;
5718;SDS011;2884;47.734;9.244;2023-02-28T02:59:25;4.07;;;3.35;;
5718;SDS011;2884;47.734;9.244;2023-02-28T03:01:55;4.63;;;3.20;;
5718;SDS011;2884;47.734;9.244;2023-02-28T03:04:24;3.97;;;3.65;;
5718;SDS011;2884;47.734;9.244;2023-02-28T03:06:53;3.97;;;3.20;;
5718;SDS011;2884;47.734;9.244;2023-02-28T03:09:20;5.43;;;3.60;;
5718;SDS011;2884;47.734;9.244;2023-02-28T03:11:49;3.65;;;3.13;;
5718;SDS011;2884;47.734;9.244;2023-02-28T03:14:20;4.00;;;3.13;;
5718;SDS011;2884;47.734;9.244;2023-02-28T03:22:28;4.70;;;3.80;;
5718;SDS011;2884;47.734;9.244;2023-02-28T03:25:07;3.47;;;2.95;;
5718;SDS011;2884;47.734;9.244;2023-02-28T03:30:25;3.55;;;3.25;;
5718;SDS011;2884;47.734;9.244;2023-02-28T03:33:16;3.88;;;3.60;;
5718;SDS011;2884;47.734;9.244;2023-02-28T03:36:01;5.50;;;3.28;;
5718;SDS011;2884;47.734;9.244;2023-02-28T03:41:06;3.70;;;3.10;;
5718;SDS011;2884;47.734;9.244;2023-02-28T03:43:43;6.57;;;3.80;;
5718;SDS011;2884;47.734;9.244;2023-02-28T03:46:14;3.88;;;3.55;;
5718;SDS011;2884;47.734;9.244;2023-02-28T03:48:46;4.40;;;4.00;;
5718;SDS011;2884;47.734;9.244;2023-02-28T03:51:33;6.53;;;4.00;;
5718;SDS011;2884;47.734;9.244;2023-02-28T03:54:02;4.60;;;3.35;;
5718;SDS011;2884;47.734;9.244;2023-02-28T03:56:37;3.80;;;3.45;;
5718;SDS011;2884;47.734;9.244;2023-02-28T03:59:15;9.02;;;3.97;;
5718;SDS011;2884;47.734;9.244;2023-02-28T04:01:58;5.50;;;3.72;;
5718;SDS011;2884;47.734;9.244;2023-02-28T04:04:23;6.87;;;4.20;;
5718;SDS011;2884;47.734;9.244;2023-02-28T04:06:52;4.17;;;3.77;;
5718;SDS011;2884;47.734;9.244;2023-02-28T04:09:27;7.90;;;3.75;;
5718;SDS011;2884;47.734;9.244;2023-02-28T04:11:53;7.13;;;3.90;;
5718;SDS011;2884;47.734;9.244;2023-02-28T04:14:18;4.90;;;4.00;;
5718;SDS011;2884;47.734;9.244;2023-02-28T04:16:44;5.93;;;4.10;;
5718;SDS011;2884;47.734;9.244;2023-02-28T04:19:11;4.55;;;3.65;;
5718;SDS011;2884;47.734;9.244;2023-02-28T04:21:38;4.10;;;3.70;;
5718;SDS011;2884;47.734;9.244;2023-02-28T04:24:07;5.45;;;3.95;;
5718;SDS011;2884;47.734;9.244;2023-02-28T04:26:34;3.83;;;3.53;;
5718;SDS011;2884;47.734;9.244;2023-02-28T04:29:01;5.40;;;4.05;;
5718;SDS011;2884;47.734;9.244;2023-02-28T04:31:28;4.20;;;3.80;;
5718;SDS011;2884;47.734;9.244;2023-02-28T04:33:54;4.97;;;4.10;;
5718;SDS011;2884;47.734;9.244;2023-02-28T04:36:19;5.73;;;4.83;;
5718;SDS011;2884;47.734;9.244;2023-02-28T04:38:45;7.07;;;4.73;;
5718;SDS011;2884;47.734;9.244;2023-02-28T04:41:11;5.17;;;3.97;;
5718;SDS011;2884;47.734;9.244;2023-02-28T04:43:37;4.03;;;3.63;;
5718;SDS011;2884;47.734;9.244;2023-02-28T04:46:06;8.13;;;4.20;;
5718;SDS011;2884;47.734;9.244;2023-02-28T04:48:36;5.80;;;4.90;;
5718;SDS011;2884;47.734;9.244;2023-02-28T04:53:32;5.20;;;4.10;;
5718;SDS011;2884;47.734;9.244;2023-02-28T04:55:58;7.03;;;5.10;;
5718;SDS011;2884;47.734;9.244;2023-02-28T04:58:24;6.20;;;4.23;;
5718;SDS011;2884;47.734;9.244;2023-02-28T05:00:50;5.60;;;4.60;;
5718;SDS011;2884;47.734;9.244;2023-02-28T05:03:16;5.35;;;4.45;;
5718;SDS011;2884;47.734;9.244;2023-02-28T05:05:42;7.40;;;4.50;;
5718;SDS011;2884;47.734;9.244;2023-02-28T05:08:07;5.90;;;5.00;;
5718;SDS011;2884;47.734;9.244;2023-02-28T05:10:34;7.40;;;4.45;;
5718;SDS011;2884;47.734;9.244;2023-02-28T05:16:41;8.88;;;4.30;;
5718;SDS011;2884;47.734;9.244;2023-02-28T05:19:07;5.35;;;4.43;;
5718;SDS011;2884;47.734;9.244;2023-02-28T05:21:36;7.27;;;4.40;;
5718;SDS011;2884;47.734;9.244;2023-02-28T05:24:07;9.80;;;4.18;;
5718;SDS011;2884;47.734;9.244;2023-02-28T05:26:35;8.25;;;4.45;;
5718;SDS011;2884;47.734;9.244;2023-02-28T05:29:03;5.75;;;5.20;;
5718;SDS011;2884;47.734;9.244;2023-02-28T05:31:30;4.72;;;4.32;;
5718;SDS011;2884;47.734;9.244;2023-02-28T05:33:55;6.80;;;5.03;;
5718;SDS011;2884;47.734;9.244;2023-02-28T05:36:21;5.30;;;4.90;;
5718;SDS011;2884;47.734;9.244;2023-02-28T05:38:47;4.83;;;4.33;;
5718;SDS011;2884;47.734;9.244;2023-02-28T05:41:13;5.38;;;4.05;;
5718;SDS011;2884;47.734;9.244;2023-02-28T05:43:39;5.95;;;4.50;;
5718;SDS011;2884;47.734;9.244;2023-02-28T05:46:05;7.67;;;5.60;;
5718;SDS011;2884;47.734;9.244;2023-02-28T05:48:32;6.00;;;4.80;;
5718;SDS011;2884;47.734;9.244;2023-02-28T05:50:59;5.80;;;5.10;;
5718;SDS011;2884;47.734;9.244;2023-02-28T05:53:25;5.60;;;5.00;;
5718;SDS011;2884;47.734;9.244;2023-02-28T05:55:51;7.57;;;6.03;;
5718;SDS011;2884;47.734;9.244;2023-02-28T05:58:17;5.78;;;5.15;;
5718;SDS011;2884;47.734;9.244;2023-02-28T06:00:42;7.50;;;6.07;;
5718;SDS011;2884;47.734;9.244;2023-02-28T06:03:08;6.53;;;5.20;;
5718;SDS011;2884;47.734;9.244;2023-02-28T06:05:34;7.20;;;5.47;;
5718;SDS011;2884;47.734;9.244;2023-02-28T06:07:59;5.83;;;4.77;;
5718;SDS011;2884;47.734;9.244;2023-02-28T06:10:25;6.70;;;5.13;;
5718;SDS011;2884;47.734;9.244;2023-02-28T06:12:50;6.07;;;5.40;;
5718;SDS011;2884;47.734;9.244;2023-02-28T06:15:16;8.07;;;5.90;;
5718;SDS011;2884;47.734;9.244;2023-02-28T06:17:42;5.30;;;4.80;;
5718;SDS011;2884;47.734;9.244;2023-02-28T06:20:10;5.43;;;4.93;;
5718;SDS011;2884;47.734;9.244;2023-02-28T06:22:38;6.72;;;5.38;;
5718;SDS011;2884;47.734;9.244;2023-02-28T06:25:08;7.72;;;5.93;;
5718;SDS011;2884;47.734;9.244;2023-02-28T06:27:35;7.95;;;5.03;;
5718;SDS011;2884;47.734;9.244;2023-02-28T06:30:04;5.95;;;4.88;;
5718;SDS011;2884;47.734;9.244;2023-02-28T06:32:32;6.07;;;5.10;;
5718;SDS011;2884;47.734;9.244;2023-02-28T06:34:58;8.20;;;6.00;;
5718;SDS011;2884;47.734;9.244;2023-02-28T06:37:23;6.27;;;5.27;;
5718;SDS011;2884;47.734;9.244;2023-02-28T06:39:51;8.82;;;5.95;;
5718;SDS011;2884;47.734;9.244;2023-02-28T06:42:17;9.80;;;6.70;;
5718;SDS011;2884;47.734;9.244;2023-02-28T06:44:43;5.50;;;4.87;;
5718;SDS011;2884;47.734;9.244;2023-02-28T06:47:08;5.50;;;5.00;;
5718;SDS011;2884;47.734;9.244;2023-02-28T06:49:34;6.37;;;5.67;;
5718;SDS011;2884;47.734;9.244;2023-02-28T06:52:03;6.53;;;5.05;;
5718;SDS011;2884;47.734;9.244;2023-02-28T06:54:29;7.38;;;5.60;;
5718;SDS011;2884;47.734;9.244;2023-02-28T06:56:57;6.15;;;5.15;;
5718;SDS011;2884;47.734;9.244;2023-02-28T06:59:23;7.90;;;5.57;;
5718;SDS011;2884;47.734;9.244;2023-02-28T07:01:48;9.03;;;5.60;;
5718;SDS011;2884;47.734;9.244;2023-02-28T07:04:17;8.63;;;6.03;;
5718;SDS011;2884;47.734;9.244;2023-02-28T07:07:07;5.93;;;5.05;;
5718;SDS011;2884;47.734;9.244;2023-02-28T07:09:33;7.87;;;5.63;;
5718;SDS011;2884;47.734;9.244;2023-02-28T07:12:02;7.60;;;5.40;;
5718;SDS011;2884;47.734;9.244;2023-02-28T07:14:27;7.97;;;6.00;;
5718;SDS011;2884;47.734;9.244;2023-02-28T07:16:56;6.38;;;5.72;;
5718;SDS011;2884;47.734;9.244;2023-02-28T07:19:27;7.20;;;6.07;;
5718;SDS011;2884;47.734;9.244;2023-02-28T07:21:56;7.68;;;6.10;;
5718;SDS011;2884;47.734;9.244;2023-02-28T07:24:31;6.68;;;5.97;;
5718;SDS011;2884;47.734;9.244;2023-02-28T07:26:59;7.30;;;6.20;;
5718;SDS011;2884;47.734;9.244;2023-02-28T07:29:24;7.77;;;5.83;;
5718;SDS011;2884;47.734;9.244;2023-02-28T07:31:50;7.77;;;6.03;;
5718;SDS011;2884;47.734;9.244;2023-02-28T07:34:18;9.32;;;6.25;;
5718;SDS011;2884;47.734;9.244;2023-02-28T07:36:44;13.20;;;7.03;;
5718;SDS011;2884;47.734;9.244;2023-02-28T07:39:10;6.43;;;5.23;;
5718;SDS011;2884;47.734;9.244;2023-02-28T07:41:36;9.30;;;6.40;;
5718;SDS011;2884;47.734;9.244;2023-02-28T07:44:08;9.05;;;5.93;;
5718;SDS011;2884;47.734;9.244;2023-02-28T07:46:34;9.25;;;6.32;;
5718;SDS011;2884;47.734;9.244;2023-02-28T07:49:01;8.40;;;5.80;;
5718;SDS011;2884;47.734;9.244;2023-02-28T07:51:28;9.68;;;5.97;;
5718;SDS011;2884;47.734;9.244;2023-02-28T07:53:54;7.90;;;6.28;;
5718;SDS011;2884;47.734;9.244;2023-02-28T07:56:20;6.80;;;5.80;;
5718;SDS011;2884;47.734;9.244;2023-02-28T08:01:57;5.93;;;5.18;;
5718;SDS011;2884;47.734;9.244;2023-02-28T08:04:24;9.15;;;6.32;;
5718;SDS011;2884;47.734;9.244;2023-02-28T08:07:00;10.40;;;6.38;;
5718;SDS011;2884;47.734;9.244;2023-02-28T08:09:48;7.50;;;5.75;;
5718;SDS011;2884;47.734;9.244;2023-02-28T08:12:14;7.73;;;6.00;;
5718;SDS011;2884;47.734;9.244;2023-02-28T08:14:39;5.57;;;4.97;;
5718;SDS011;2884;47.734;9.244;2023-02-28T08:17:05;10.90;;;6.00;;
5718;SDS011;2884;47.734;9.244;2023-02-28T08:19:31;7.63;;;6.25;;
5718;SDS011;2884;47.734;9.244;2023-02-28T08:21:57;9.00;;;6.10;;
5718;SDS011;2884;47.734;9.244;2023-02-28T08:24:23;9.35;;;6.55;;
5718;SDS011;2884;47.734;9.244;2023-02-28T08:26:49;6.93;;;6.10;;
5718;SDS011;2884;47.734;9.244;2023-02-28T08:29:15;8.67;;;6.33;;
5718;SDS011;2884;47.734;9.244;2023-02-28T08:31:41;7.47;;;5.30;;
5718;SDS011;2884;47.734;9.244;2023-02-28T08:34:07;11.02;;;6.57;;
5718;SDS011;2884;47.734;9.244;2023-02-28T08:36:36;8.38;;;6.88;;
5718;SDS011;2884;47.734;9.244;2023-02-28T08:39:03;8.40;;;5.95;;
5718;SDS011;2884;47.734;9.244;2023-02-28T08:41:29;7.90;;;5.65;;
5718;SDS011;2884;47.734;9.244;2023-02-28T08:43:54;12.00;;;6.97;;
5718;SDS011;2884;47.734;9.244;2023-02-28T08:46:20;8.33;;;6.73;;
5718;SDS011;2884;47.734;9.244;2023-02-28T08:48:46;9.23;;;6.93;;
5718;SDS011;2884;47.734;9.244;2023-02-28T08:51:15;10.33;;;6.67;;
5718;SDS011;2884;47.734;9.244;2023-02-28T08:53:43;8.25;;;5.60;;
5718;SDS011;2884;47.734;9.244;2023-02-28T08:56:11;9.13;;;6.38;;
5718;SDS011;2884;47.734;9.244;2023-02-28T08:58:38;10.68;;;7.07;;
5718;SDS011;2884;47.734;9.244;2023-02-28T09:03:38;10.23;;;5.85;;
5718;SDS011;2884;47.734;9.244;2023-02-28T09:06:03;9.23;;;6.50;;
5718;SDS011;2884;47.734;9.244;2023-02-28T09:08:30;7.60;;;6.07;;
5718;SDS011;2884;47.734;9.244;2023-02-28T09:10:57;9.80;;;6.50;;
5718;SDS011;2884;47.734;9.244;2023-02-28T09:13:26;8.75;;;6.05;;
5718;SDS011;2884;47.734;9.244;2023-02-28T09:15:52;11.02;;;6.63;;
5718;SDS011;2884;47.734;9.244;2023-02-28T09:18:18;7.68;;;6.25;;
5718;SDS011;2884;47.734;9.244;2023-02-28T09:20:44;6.27;;;5.23;;
5718;SDS011;2884;47.734;9.244;2023-02-28T09:23:10;7.87;;;5.57;;
5718;SDS011;2884;47.734;9.244;2023-02-28T09:25:37;11.07;;;6.13;;
5718;SDS011;2884;47.734;9.244;2023-02-28T09:28:03;9.68;;;7.38;;
5718;SDS011;2884;47.734;9.244;2023-02-28T09:30:29;9.13;;;5.90;;
5718;SDS011;2884;47.734;9.244;2023-02-28T09:32:55;7.82;;;6.20;;
5718;SDS011;2884;47.734;9.244;2023-02-28T09:35:22;8.70;;;6.60;;
5718;SDS011;2884;47.734;9.244;2023-02-28T09:37:49;8.77;;;6.45;;
5718;SDS011;2884;47.734;9.244;2023-02-28T09:40:18;11.75;;;6.45;;
5718;SDS011;2884;47.734;9.244;2023-02-28T09:42:45;10.25;;;7.40;;
5718;SDS011;2884;47.734;9.244;2023-02-28T09:45:26;8.00;;;6.00;;
5718;SDS011;2884;47.734;9.244;2023-02-28T09:47:54;7.30;;;5.80;;
5718;SDS011;2884;47.734;9.244;2023-02-28T09:52:55;7.53;;;5.95;;
5718;SDS011;2884;47.734;9.244;2023-02-28T09:55:31;6.67;;;6.00;;
5718;SDS011;2884;47.734;9.244;2023-02-28T09:58:00;10.52;;;6.88;;
5718;SDS011;2884;47.734;9.244;2023-02-28T10:00:33;11.07;;;7.47;;
5718;SDS011;2884;47.734;9.244;2023-02-28T10:03:06;10.13;;;6.97;;
5718;SDS011;2884;47.734;9.244;2023-02-28T10:11:23;10.18;;;7.20;;
5718;SDS011;2884;47.734;9.244;2023-02-28T10:13:54;9.35;;;7.70;;
5718;SDS011;2884;47.734;9.244;2023-02-28T10:17:27;8.80;;;6.97;;
5718;SDS011;2884;47.734;9.244;2023-02-28T10:22:11;8.45;;;7.38;;
5718;SDS011;2884;47.734;9.244;2023-02-28T10:24:43;11.40;;;7.43;;
5718;SDS011;2884;47.734;9.244;2023-02-28T10:27:18;9.60;;;7.10;;
5718;SDS011;2884;47.734;9.244;2023-02-28T10:29:52;10.88;;;7.90;;
5718;SDS011;2884;47.734;9.244;2023-02-28T10:32:21;9.15;;;7.18;;
5718;SDS011;2884;47.734;9.244;2023-02-28T10:34:57;7.78;;;6.45;;
5718;SDS011;2884;47.734;9.244;2023-02-28T10:37:26;10.18;;;7.85;;
5718;SDS011;2884;47.734;9.244;2023-02-28T10:39:52;11.60;;;7.38;;
5718;SDS011;2884;47.734;9.244;2023-02-28T10:42:19;11.50;;;7.87;;
5718;SDS011;2884;47.734;9.244;2023-02-28T10:44:47;15.13;;;8.05;;
5718;SDS011;2884;47.734;9.244;2023-02-28T10:47:16;9.20;;;7.00;;
5718;SDS011;2884;47.734;9.244;2023-02-28T10:49:49;11.82;;;7.43;;
5718;SDS011;2884;47.734;9.244;2023-02-28T10:52:37;14.82;;;8.25;;
5718;SDS011;2884;47.734;9.244;2023-02-28T10:55:14;10.70;;;7.07;;
5718;SDS011;2884;47.734;9.244;2023-02-28T10:57:48;8.88;;;7.20;;
5718;SDS011;2884;47.734;9.244;2023-02-28T11:00:19;9.90;;;7.68;;
5718;SDS011;2884;47.734;9.244;2023-02-28T11:02:46;11.63;;;7.75;;
5718;SDS011;2884;47.734;9.244;2023-02-28T11:05:29;10.77;;;7.93;;
5718;SDS011;2884;47.734;9.244;2023-02-28T11:10:32;11.82;;;8.23;;
5718;SDS011;2884;47.734;9.244;2023-02-28T11:13:01;11.70;;;7.50;;
5718;SDS011;2884;47.734;9.244;2023-02-28T11:15:37;10.65;;;7.88;;
5718;SDS011;2884;47.734;9.244;2023-02-28T11:20:38;10.45;;;7.97;;
5718;SDS011;2884;47.734;9.244;2023-02-28T11:23:04;10.00;;;7.97;;
5718;SDS011;2884;47.734;9.244;2023-02-28T11:25:34;11.05;;;8.70;;
5718;SDS011;2884;47.734;9.244;2023-02-28T11:28:01;9.40;;;7.60;;
5718;SDS011;2884;47.734;9.244;2023-02-28T11:30:38;10.35;;;7.65;;
5718;SDS011;2884;47.734;9.244;2023-02-28T11:35:55;17.13;;;9.27;;
5718;SDS011;2884;47.734;9.244;2023-02-28T11:38:24;11.93;;;8.95;;
5718;SDS011;2884;47.734;9.244;2023-02-28T11:48:32;12.75;;;8.93;;
5718;SDS011;2884;47.734;9.244;2023-02-28T11:57:00;11.65;;;8.80;;
5718;SDS011;2884;47.734;9.244;2023-02-28T12:02:22;13.15;;;9.40;;
5718;SDS011;2884;47.734;9.244;2023-02-28T12:04:53;11.70;;;9.00;;
5718;SDS011;2884;47.734;9.244;2023-02-28T12:08:21;16.08;;;9.43;;
5718;SDS011;2884;47.734;9.244;2023-02-28T12:31:46;12.40;;;8.30;;
5718;SDS011;2884;47.734;9.244;2023-02-28T12:34:18;14.80;;;10.00;;
5718;SDS011;2884;47.734;9.244;2023-02-28T12:36:46;9.93;;;8.30;;
5718;SDS011;2884;47.734;9.244;2023-02-28T12:39:20;18.60;;;10.60;;
5718;SDS011;2884;47.734;9.244;2023-02-28T12:41:50;11.23;;;9.35;;
5718;SDS011;2884;47.734;9.244;2023-02-28T12:47:11;13.45;;;9.32;;
5718;SDS011;2884;47.734;9.244;2023-02-28T12:49:46;11.73;;;8.80;;
5718;SDS011;2884;47.734;9.244;2023-02-28T12:52:17;12.88;;;10.15;;
5718;SDS011;2884;47.734;9.244;2023-02-28T12:54:53;14.30;;;9.85;;
5718;SDS011;2884;47.734;9.244;2023-02-28T12:57:35;13.70;;;8.82;;
5718;SDS011;2884;47.734;9.244;2023-02-28T13:00:11;16.38;;;9.38;;
5718;SDS011;2884;47.734;9.244;2023-02-28T13:02:46;14.18;;;9.25;;
5718;SDS011;2884;47.734;9.244;2023-02-28T13:11:01;16.20;;;10.27;;
5718;SDS011;2884;47.734;9.244;2023-02-28T13:13:27;16.40;;;10.17;;
5718;SDS011;2884;47.734;9.244;2023-02-28T13:18:38;17.17;;;10.18;;
5718;SDS011;2884;47.734;9.244;2023-02-28T13:21:07;12.27;;;9.55;;
5718;SDS011;2884;47.734;9.244;2023-02-28T13:26:12;14.50;;;10.55;;
5718;SDS011;2884;47.734;9.244;2023-02-28T13:31:16;16.15;;;10.57;;
5718;SDS011;2884;47.734;9.244;2023-02-28T13:38:46;16.80;;;10.27;;
5718;SDS011;2884;47.734;9.244;2023-02-28T13:47:24;16.10;;;10.65;;
5718;SDS011;2884;47.734;9.244;2023-02-28T13:49:26;13.80;;;9.52;;
5718;SDS011;2884;47.734;9.244;2023-02-28T14:00:15;14.40;;;11.45;;
5718;SDS011;2884;47.734;9.244;2023-02-28T14:03:35;15.68;;;9.93;;
5718;SDS011;2884;47.734;9.244;2023-02-28T14:06:07;15.15;;;10.13;;
5718;SDS011;2884;47.734;9.244;2023-02-28T14:08:54;14.68;;;9.80;;
5718;SDS011;2884;47.734;9.244;2023-02-28T14:11:32;31.00;;;10.82;;
5718;SDS011;2884;47.734;9.244;2023-02-28T14:14:00;14.95;;;10.73;;
5718;SDS011;2884;47.734;9.244;2023-02-28T14:16:46;16.10;;;11.95;;
5718;SDS011;2884;47.734;9.244;2023-02-28T14:19:23;19.05;;;10.80;;
5718;SDS011;2884;47.734;9.244;2023-02-28T14:38:39;19.42;;;11.48;;
5718;SDS011;2884;47.734;9.244;2023-02-28T14:41:30;16.38;;;10.15;;
5718;SDS011;2884;47.734;9.244;2023-02-28T14:43:55;25.63;;;12.68;;
5718;SDS011;2884;47.734;9.244;2023-02-28T14:46:36;16.95;;;10.98;;
5718;SDS011;2884;47.734;9.244;2023-02-28T14:49:04;16.98;;;10.20;;
5718;SDS011;2884;47.734;9.244;2023-02-28T14:51:31;16.52;;;10.32;;
5718;SDS011;2884;47.734;9.244;2023-02-28T14:53:58;21.58;;;11.13;;
5718;SDS011;2884;47.734;9.244;2023-02-28T14:56:27;17.17;;;11.15;;
5718;SDS011;2884;47.734;9.244;2023-02-28T14:58:56;16.08;;;11.10;;
5718;SDS011;2884;47.734;9.244;2023-02-28T15:01:23;15.63;;;12.07;;
5718;SDS011;2884;47.734;9.244;2023-02-28T15:03:56;15.82;;;10.80;;
5718;SDS011;2884;47.734;9.244;2023-02-28T15:06:30;17.55;;;11.75;;
5718;SDS011;2884;47.734;9.244;2023-02-28T15:09:18;14.90;;;11.65;;
5718;SDS011;2884;47.734;9.244;2023-02-28T15:11:50;17.58;;;11.82;;
5718;SDS011;2884;47.734;9.244;2023-02-28T15:14:19;17.00;;;11.32;;
5718;SDS011;2884;47.734;9.244;2023-02-28T15:16:48;16.38;;;11.52;;
5718;SDS011;2884;47.734;9.244;2023-02-28T15:19:24;14.68;;;10.23;;
5718;SDS011;2884;47.734;9.244;2023-02-28T15:21:58;14.73;;;10.52;;
5718;SDS011;2884;47.734;9.244;2023-02-28T15:27:16;16.17;;;10.80;;
5718;SDS011;2884;47.734;9.244;2023-02-28T15:29:53;14.88;;;10.73;;
5718;SDS011;2884;47.734;9.244;2023-02-28T15:34:54;14.30;;;10.35;;
5718;SDS011;2884;47.734;9.244;2023-02-28T15:39:53;13.52;;;9.55;;
5718;SDS011;2884;47.734;9.244;2023-02-28T15:42:21;16.30;;;9.73;;
5718;SDS011;2884;47.734;9.244;2023-02-28T15:44:47;14.88;;;10.52;;
5718;SDS011;2884;47.734;9.244;2023-02-28T15:47:23;14.63;;;10.85;;
5718;SDS011;2884;47.734;9.244;2023-02-28T15:49:58;15.88;;;10.98;;
5718;SDS011;2884;47.734;9.244;2023-02-28T15:52:33;13.45;;;9.70;;
5718;SDS011;2884;47.734;9.244;2023-02-28T15:55:22;13.68;;;10.30;;
5718;SDS011;2884;47.734;9.244;2023-02-28T15:57:51;13.70;;;10.40;;
5718;SDS011;2884;47.734;9.244;2023-02-28T16:00:20;16.27;;;10.70;;
5718;SDS011;2884;47.734;9.244;2023-02-28T16:02:47;19.90;;;10.98;;
5718;SDS011;2884;47.734;9.244;2023-02-28T16:07:45;17.70;;;11.10;;
5718;SDS011;2884;47.734;9.244;2023-02-28T16:10:13;17.88;;;11.65;;
5718;SDS011;2884;47.734;9.244;2023-02-28T16:12:41;14.20;;;10.50;;
5718;SDS011;2884;47.734;9.244;2023-02-28T16:15:18;14.47;;;10.70;;
5718;SDS011;2884;47.734;9.244;2023-02-28T16:17:44;15.07;;;11.05;;
5718;SDS011;2884;47.734;9.244;2023-02-28T16:20:12;14.77;;;10.30;;
5718;SDS011;2884;47.734;9.244;2023-02-28T16:22:40;18.70;;;11.57;;
5718;SDS011;2884;47.734;9.244;2023-02-28T16:25:10;14.80;;;10.85;;
5718;SDS011;2884;47.734;9.244;2023-02-28T16:27:36;16.65;;;10.68;;
5718;SDS011;2884;47.734;9.244;2023-02-28T16:30:03;14.27;;;11.10;;
5718;SDS011;2884;47.734;9.244;2023-02-28T16:32:31;17.92;;;11.73;;
5718;SDS011;2884;47.734;9.244;2023-02-28T16:34:57;16.85;;;11.18;;
5718;SDS011;2884;47.734;9.244;2023-02-28T16:37:22;14.43;;;10.30;;
5718;SDS011;2884;47.734;9.244;2023-02-28T16:39:48;14.47;;;11.03;;
5718;SDS011;2884;47.734;9.244;2023-02-28T16:42:20;19.00;;;11.57;;
5718;SDS011;2884;47.734;9.244;2023-02-28T16:44:48;17.85;;;11.95;;
5718;SDS011;2884;47.734;9.244;2023-02-28T16:47:14;18.57;;;11.73;;
5718;SDS011;2884;47.734;9.244;2023-02-28T16:49:40;18.67;;;12.80;;
5718;SDS011;2884;47.734;9.244;2023-02-28T16:52:07;20.58;;;12.68;;
5718;SDS011;2884;47.734;9.244;2023-02-28T16:54:37;15.35;;;11.60;;
5718;SDS011;2884;47.734;9.244;2023-02-28T16:57:04;21.52;;;13.32;;
5718;SDS011;2884;47.734;9.244;2023-02-28T16:59:31;22.83;;;12.30;;
5718;SDS011;2884;47.734;9.244;2023-02-28T17:01:57;14.75;;;11.15;;
5718;SDS011;2884;47.734;9.244;2023-02-28T17:04:23;26.77;;;13.37;;
5718;SDS011;2884;47.734;9.244;2023-02-28T17:06:51;21.30;;;14.20;;
5718;SDS011;2884;47.734;9.244;2023-02-28T17:09:21;18.40;;;12.77;;
5718;SDS011;2884;47.734;9.244;2023-02-28T17:11:47;22.08;;;14.07;;
5718;SDS011;2884;47.734;9.244;2023-02-28T17:14:13;20.33;;;13.70;;
5718;SDS011;2884;47.734;9.244;2023-02-28T17:16:39;19.75;;;12.90;;
5718;SDS011;2884;47.734;9.244;2023-02-28T17:19:06;21.63;;;13.65;;
5718;SDS011;2884;47.734;9.244;2023-02-28T17:21:33;24.38;;;15.35;;
5718;SDS011;2884;47.734;9.244;2023-02-28T17:23:59;20.73;;;14.32;;
5718;SDS011;2884;47.734;9.244;2023-02-28T17:26:25;18.00;;;12.90;;
5718;SDS011;2884;47.734;9.244;2023-02-28T17:28:51;19.05;;;13.30;;
5718;SDS011;2884;47.734;9.244;2023-02-28T17:31:20;27.55;;;16.58;;
5718;SDS011;2884;47.734;9.244;2023-02-28T17:33:45;26.47;;;16.70;;
5718;SDS011;2884;47.734;9.244;2023-02-28T17:36:22;25.98;;;15.55;;
5718;SDS011;2884;47.734;9.244;2023-02-28T17:38:50;22.48;;;14.43;;
5718;SDS011;2884;47.734;9.244;2023-02-28T17:41:16;30.52;;;18.23;;
5718;SDS011;2884;47.734;9.244;2023-02-28T17:43:42;27.23;;;17.38;;
5718;SDS011;2884;47.734;9.244;2023-02-28T17:46:11;30.17;;;16.23;;
5718;SDS011;2884;47.734;9.244;2023-02-28T17:48:41;24.85;;;16.08;;
5718;SDS011;2884;47.734;9.244;2023-02-28T17:51:08;21.30;;;14.13;;
5718;SDS011;2884;47.734;9.244;2023-02-28T17:53:36;20.83;;;13.80;;
5718;SDS011;2884;47.734;9.244;2023-02-28T17:56:02;19.00;;;13.63;;
5718;SDS011;2884;47.734;9.244;2023-02-28T17:58:28;23.30;;;15.30;;
5718;SDS011;2884;47.734;9.244;2023-02-28T18:00:56;21.60;;;15.32;;
5718;SDS011;2884;47.734;9.244;2023-02-28T18:03:22;26.98;;;16.27;;
5718;SDS011;2884;47.734;9.244;2023-02-28T18:05:49;23.65;;;14.57;;